createdAt,value
2017-06-13T00:00:10.954Z,78.9
2017-06-13T00:01:18.443Z,79.7
2017-06-13T00:02:25.624Z,79.7
2017-06-13T00:03:33.103Z,79.7
2017-06-13T00:04:40.255Z,80.5
2017-06-13T00:05:47.750Z,79.7
2017-06-13T00:06:55.232Z,80.3
2017-06-13T00:08:02.392Z,78.9
2017-06-13T00:09:10.184Z,80.5
2017-06-13T00:10:17.672Z,79.4
2017-06-13T00:11:25.164Z,79.6
2017-06-13T00:12:32.640Z,80.3
2017-06-13T00:13:40.124Z,80
2017-06-13T00:14:47.907Z,80.3
2017-06-13T00:15:55.391Z,80.1
2017-06-13T00:17:02.544Z,80
2017-06-13T00:18:09.699Z,81.1
2017-06-13T00:19:17.187Z,81.4
2017-06-13T00:20:24.972Z,80.9
2017-06-13T00:21:32.448Z,81.8
2017-06-13T00:22:39.936Z,79.5
2017-06-13T00:23:47.416Z,80.1
2017-06-13T00:24:54.893Z,80.3
2017-06-13T00:26:02.344Z,80
2017-06-13T00:27:09.500Z,79.4
2017-06-13T00:28:16.982Z,80.6
2017-06-13T00:29:24.464Z,80.5
2017-06-13T00:30:31.292Z,80.7
2017-06-13T00:31:39.082Z,82.1
2017-06-13T00:32:46.569Z,80.7
2017-06-13T00:33:54.056Z,79.3
2017-06-13T00:35:01.543Z,82
2017-06-13T00:36:09.022Z,81.8
2017-06-13T00:37:16.805Z,81
2017-06-13T00:38:24.300Z,82.5
2017-06-13T00:39:31.785Z,83.7
2017-06-13T00:40:39.268Z,83.4
2017-06-13T00:41:46.752Z,83
2017-06-13T00:42:54.583Z,81.4
2017-06-13T00:44:02.068Z,80.3
2017-06-13T00:45:08.898Z,81.6
2017-06-13T00:46:16.060Z,83.1
2017-06-13T00:47:23.212Z,81.9
2017-06-13T00:48:31.001Z,82.1
2017-06-13T00:49:38.490Z,82.2
2017-06-13T00:50:45.314Z,81.9
2017-06-13T00:51:52.468Z,80.6
2017-06-13T00:52:59.953Z,81.3
2017-06-13T00:54:07.745Z,83
2017-06-13T00:55:14.905Z,80.7
2017-06-13T00:56:22.388Z,82.7
2017-06-13T00:57:29.867Z,82.6
2017-06-13T00:58:37.347Z,82.5
2017-06-13T00:59:45.145Z,82.2
2017-06-13T01:00:52.629Z,81.4
2017-06-13T01:02:00.110Z,83.4
2017-06-13T01:03:07.593Z,82.6
2017-06-13T01:04:15.070Z,83.4
2017-06-13T01:05:22.856Z,82.5
2017-06-13T01:06:30.340Z,83.3
2017-06-13T01:07:37.825Z,82.9
2017-06-13T01:08:45.304Z,83.4
2017-06-13T01:09:52.789Z,83.3
2017-06-13T01:11:00.571Z,81.6
2017-06-13T01:12:08.068Z,83.4
2017-06-13T01:13:15.221Z,83.7
2017-06-13T01:14:22.378Z,83.3
2017-06-13T01:15:29.862Z,82.4
2017-06-13T01:16:37.650Z,83.3
2017-06-13T01:17:45.140Z,83.1
2017-06-13T01:18:52.629Z,82.3
2017-06-13T01:20:00.111Z,82.8
2017-06-13T01:21:07.606Z,83.3
2017-06-13T01:22:15.394Z,82.7
2017-06-13T01:23:22.872Z,80.9
2017-06-13T01:24:30.364Z,82
2017-06-13T01:25:37.842Z,84.1
2017-06-13T01:26:45.323Z,81.8
2017-06-13T01:27:53.101Z,85.4
2017-06-13T01:29:00.582Z,85.3
2017-06-13T01:30:08.061Z,83.6
2017-06-13T01:31:15.541Z,83.8
2017-06-13T01:32:23.019Z,83.9
2017-06-13T01:33:30.799Z,83.7
2017-06-13T01:34:37.951Z,84.9
2017-06-13T01:35:45.435Z,84.8
2017-06-13T01:36:52.581Z,84.4
2017-06-13T01:38:00.066Z,85.2
2017-06-13T01:39:07.843Z,83.5
2017-06-13T01:40:15.325Z,84.6
2017-06-13T01:41:22.812Z,84.3
2017-06-13T01:42:30.299Z,82
2017-06-13T01:43:37.777Z,82.7
2017-06-13T01:44:45.556Z,82.9
2017-06-13T01:45:53.043Z,83.3
2017-06-13T01:47:00.522Z,83.3
2017-06-13T01:48:08.003Z,85.3
2017-06-13T01:49:15.513Z,84.9
2017-06-13T01:50:23.296Z,85.7
2017-06-13T01:51:30.777Z,85.6
2017-06-13T01:52:37.929Z,85.1
2017-06-13T01:53:45.422Z,85.9
2017-06-13T01:54:52.907Z,85.9
2017-06-13T01:56:00.356Z,84.1
2017-06-13T01:57:07.847Z,82.5
2017-06-13T01:58:15.331Z,86.3
2017-06-13T01:59:22.815Z,86
2017-06-13T02:00:29.978Z,83.7
2017-06-13T02:01:37.767Z,85.4
2017-06-13T02:02:44.921Z,86.7
2017-06-13T02:03:52.406Z,86.8
2017-06-13T02:04:59.886Z,86.6
2017-06-13T02:06:07.366Z,85.1
2017-06-13T02:07:15.148Z,86.9
2017-06-13T02:08:22.635Z,86.2
2017-06-13T02:09:30.117Z,86.9
2017-06-13T02:10:37.613Z,86.7
2017-06-13T02:11:45.087Z,86.5
2017-06-13T02:12:52.866Z,87.1
2017-06-13T02:14:00.344Z,86.5
2017-06-13T02:15:07.846Z,84.9
2017-06-13T02:16:15.325Z,85.6
2017-06-13T02:17:22.804Z,87.3
2017-06-13T02:18:30.588Z,84.8
2017-06-13T02:19:38.073Z,86
2017-06-13T02:20:45.565Z,86.1
2017-06-13T02:21:53.079Z,87.2
2017-06-13T02:23:00.563Z,86.7
2017-06-13T02:24:08.345Z,88.1
2017-06-13T02:25:15.824Z,86.1
2017-06-13T02:26:23.321Z,85.7
2017-06-13T02:27:30.807Z,85.7
2017-06-13T02:28:38.285Z,85.8
2017-06-13T02:29:46.072Z,85.4
2017-06-13T02:30:53.550Z,86.4
2017-06-13T02:32:00.710Z,86.7
2017-06-13T02:33:08.188Z,86.8
2017-06-13T02:34:15.344Z,87
2017-06-13T02:35:23.126Z,85.8
2017-06-13T02:36:30.633Z,86.7
2017-06-13T02:37:37.780Z,86.2
2017-06-13T02:38:45.259Z,85.4
2017-06-13T02:39:52.406Z,86.2
2017-06-13T02:40:59.859Z,87.7
2017-06-13T02:42:07.014Z,86.6
2017-06-13T02:43:14.500Z,86.8
2017-06-13T02:44:21.978Z,85.1
2017-06-13T02:45:29.467Z,86
2017-06-13T02:46:37.242Z,85.9
2017-06-13T02:47:44.399Z,86.7
2017-06-13T02:48:51.897Z,88.6
2017-06-13T02:49:59.376Z,85.8
2017-06-13T02:51:06.857Z,87.2
2017-06-13T02:52:14.644Z,87.9
2017-06-13T02:53:22.133Z,87.4
2017-06-13T02:54:29.614Z,87.4
2017-06-13T02:55:37.093Z,84.6
2017-06-13T02:56:44.576Z,87.3
2017-06-13T02:57:52.355Z,88.2
2017-06-13T02:58:59.838Z,88.6
2017-06-13T03:00:07.317Z,87.5
2017-06-13T03:01:14.473Z,87.8
2017-06-13T03:02:21.947Z,86.4
2017-06-13T03:03:29.728Z,87.8
2017-06-13T03:04:37.209Z,85.8
2017-06-13T03:05:44.709Z,86.9
2017-06-13T03:06:52.187Z,86
2017-06-13T03:07:59.669Z,86.1
2017-06-13T03:09:07.447Z,87.1
2017-06-13T03:10:14.927Z,85.7
2017-06-13T03:11:22.411Z,85.8
2017-06-13T03:12:29.890Z,84
2017-06-13T03:13:37.039Z,85.9
2017-06-13T03:14:44.820Z,84.7
2017-06-13T03:15:52.298Z,84.3
2017-06-13T03:16:59.782Z,88.2
2017-06-13T03:18:07.266Z,88.6
2017-06-13T03:19:14.756Z,88.6
2017-06-13T03:20:22.531Z,90.3
2017-06-13T03:21:30.009Z,89.5
2017-06-13T03:22:37.493Z,90
2017-06-13T03:23:44.978Z,89.5
2017-06-13T03:24:52.459Z,88.8
2017-06-13T03:26:00.236Z,88.4
2017-06-13T03:27:07.719Z,87.1
2017-06-13T03:28:15.201Z,87.3
2017-06-13T03:29:22.685Z,87.8
2017-06-13T03:30:30.193Z,89
2017-06-13T03:31:37.973Z,90.1
2017-06-13T03:32:45.455Z,88.8
2017-06-13T03:33:52.939Z,89.5
2017-06-13T03:35:00.419Z,90.1
2017-06-13T03:36:07.901Z,90.5
2017-06-13T03:37:15.383Z,89.9
2017-06-13T03:38:22.531Z,88.5
2017-06-13T03:39:29.679Z,89
2017-06-13T03:40:37.158Z,89.7
2017-06-13T03:41:44.643Z,85.6
2017-06-13T03:42:52.419Z,86.1
2017-06-13T03:43:59.919Z,87.3
2017-06-13T03:45:07.398Z,88.3
2017-06-13T03:46:14.879Z,89.6
2017-06-13T03:47:22.359Z,90
2017-06-13T03:48:30.148Z,89.7
2017-06-13T03:49:37.660Z,89.3
2017-06-13T03:50:45.141Z,87
2017-06-13T03:51:52.295Z,87.4
2017-06-13T03:52:59.780Z,87.8
2017-06-13T03:54:07.562Z,87.3
2017-06-13T03:55:15.044Z,87.9
2017-06-13T03:56:22.524Z,88.4
2017-06-13T03:57:30.003Z,89.2
2017-06-13T03:58:37.481Z,86.9
2017-06-13T03:59:44.962Z,87.9
2017-06-13T04:00:52.443Z,85.9
2017-06-13T04:01:59.923Z,85
2017-06-13T04:03:07.078Z,85
2017-06-13T04:04:14.855Z,86.6
2017-06-13T04:05:22.335Z,86.5
2017-06-13T04:06:29.820Z,87.8
2017-06-13T04:07:36.969Z,88.6
2017-06-13T04:08:44.124Z,86.2
2017-06-13T04:09:51.580Z,89.2
2017-06-13T04:10:59.055Z,88.4
2017-06-13T04:12:06.208Z,88.7
2017-06-13T04:13:13.354Z,88.7
2017-06-13T04:14:20.835Z,88.7
2017-06-13T04:15:28.285Z,89.3
2017-06-13T04:16:35.768Z,88.9
2017-06-13T04:17:43.254Z,88.8
2017-06-13T04:18:50.738Z,89.3
2017-06-13T04:19:57.896Z,89.6
2017-06-13T04:21:05.676Z,89.9
2017-06-13T04:22:13.161Z,90.1
2017-06-13T04:23:20.665Z,88.9
2017-06-13T04:24:28.150Z,89.4
2017-06-13T04:25:35.642Z,88.9
2017-06-13T04:26:43.128Z,89.1
2017-06-13T04:27:50.609Z,89
2017-06-13T04:28:58.094Z,89.5
2017-06-13T04:30:05.571Z,89.1
2017-06-13T04:31:13.053Z,89.6
2017-06-13T04:32:20.507Z,89.3
2017-06-13T04:33:27.989Z,89.3
2017-06-13T04:34:35.138Z,90.1
2017-06-13T04:35:42.622Z,89.4
2017-06-13T04:36:50.117Z,89.4
2017-06-13T04:37:57.898Z,89.4
2017-06-13T04:39:05.387Z,89.4
2017-06-13T04:40:12.878Z,89.8
2017-06-13T04:41:20.354Z,89.7
2017-06-13T04:42:27.832Z,90
2017-06-13T04:43:35.318Z,90.2
2017-06-13T04:44:42.793Z,90.3
2017-06-13T04:45:50.271Z,90.1
2017-06-13T04:46:57.756Z,90.1
2017-06-13T04:48:05.232Z,89.7
2017-06-13T04:49:13.024Z,89.5
2017-06-13T04:50:20.504Z,89.5
2017-06-13T04:51:27.989Z,88.5
2017-06-13T04:52:34.810Z,88
2017-06-13T04:53:41.965Z,87.3
2017-06-13T04:54:49.752Z,86.6
2017-06-13T04:55:57.236Z,87.5
2017-06-13T04:57:04.717Z,85.9
2017-06-13T04:58:12.196Z,87.1
2017-06-13T04:59:19.681Z,87.1
2017-06-13T05:00:27.468Z,87.2
2017-06-13T05:01:34.949Z,86
2017-06-13T05:02:42.434Z,86.5
2017-06-13T05:03:49.916Z,85.9
2017-06-13T05:04:57.402Z,85.2
2017-06-13T05:06:04.880Z,85.7
2017-06-13T05:07:12.363Z,86.1
2017-06-13T05:08:19.840Z,86
2017-06-13T05:09:27.323Z,86
2017-06-13T05:10:34.810Z,86.4
2017-06-13T05:11:42.828Z,86.1
2017-06-13T05:12:50.328Z,85.2
2017-06-13T05:13:57.811Z,85.4
2017-06-13T05:15:05.298Z,85
2017-06-13T05:16:12.777Z,84.8
2017-06-13T05:17:20.561Z,85.5
2017-06-13T05:18:27.392Z,84.9
2017-06-13T05:19:34.870Z,84.5
2017-06-13T05:20:42.353Z,84.4
2017-06-13T05:21:49.853Z,83.8
2017-06-13T05:22:57.661Z,83.6
2017-06-13T05:24:05.145Z,83.2
2017-06-13T05:25:12.307Z,82.7
2017-06-13T05:26:19.782Z,82.4
2017-06-13T05:27:27.263Z,83
2017-06-13T05:28:35.045Z,81.7
2017-06-13T05:29:42.526Z,81.7
2017-06-13T05:30:50.023Z,81.9
2017-06-13T05:31:57.504Z,81.9
2017-06-13T05:33:04.989Z,81.4
2017-06-13T05:34:12.442Z,81.3
2017-06-13T05:35:20.164Z,82.2
2017-06-13T05:36:27.636Z,82.3
2017-06-13T05:37:35.119Z,82.5
2017-06-13T05:38:42.596Z,77.9
2017-06-13T05:39:50.379Z,76.5
2017-06-13T05:40:57.866Z,78.7
2017-06-13T05:42:05.344Z,80.1
2017-06-13T05:43:12.824Z,80.5
2017-06-13T05:44:19.973Z,79
2017-06-13T05:45:27.456Z,76.9
2017-06-13T05:46:34.938Z,77.5
2017-06-13T05:47:42.418Z,77.1
2017-06-13T05:48:49.901Z,74.4
2017-06-13T05:49:57.060Z,73.2
2017-06-13T05:51:04.515Z,74.3
2017-06-13T05:52:11.664Z,72.5
2017-06-13T05:53:18.815Z,74.7
2017-06-13T05:54:26.297Z,74.7
2017-06-13T05:55:33.780Z,73.5
2017-06-13T05:56:41.235Z,74.3
2017-06-13T05:57:48.714Z,72.2
2017-06-13T05:58:56.191Z,74.4
2017-06-13T06:00:03.672Z,72
2017-06-13T06:01:10.839Z,75.5
2017-06-13T06:02:18.619Z,75.3
2017-06-13T06:03:26.105Z,73.8
2017-06-13T06:04:33.585Z,75.6
2017-06-13T06:05:40.739Z,75.7
2017-06-13T06:06:48.233Z,72.1
2017-06-13T06:07:55.722Z,73.5
2017-06-13T06:09:03.205Z,72.5
2017-06-13T06:10:10.712Z,70.2
2017-06-13T06:11:18.434Z,68.8
2017-06-13T06:12:26.215Z,68.3
2017-06-13T06:13:33.701Z,70.3
2017-06-13T06:14:41.188Z,69.2
2017-06-13T06:15:48.680Z,69.2
2017-06-13T06:16:56.165Z,69.7
2017-06-13T06:18:03.950Z,72.8
2017-06-13T06:19:11.429Z,71.8
2017-06-13T06:20:18.913Z,68.8
2017-06-13T06:21:26.403Z,68.8
2017-06-13T06:22:33.886Z,68.8
2017-06-13T06:23:41.669Z,68.9
2017-06-13T06:24:49.152Z,69.3
2017-06-13T06:25:56.645Z,69.2
2017-06-13T06:27:04.129Z,67.2
2017-06-13T06:28:11.620Z,71.9
2017-06-13T06:29:19.074Z,67.5
2017-06-13T06:30:26.568Z,69.2
2017-06-13T06:31:33.719Z,68
2017-06-13T06:32:41.206Z,66.4
2017-06-13T06:33:48.036Z,66.8
2017-06-13T06:34:55.525Z,66.1
2017-06-13T06:36:03.013Z,69.7
2017-06-13T06:37:10.503Z,66.5
2017-06-13T06:38:17.990Z,65.6
2017-06-13T06:39:25.473Z,67.6
2017-06-13T06:40:32.935Z,68.3
2017-06-13T06:41:40.415Z,69.6
2017-06-13T06:42:47.571Z,65.9
2017-06-13T06:43:54.729Z,62.6
2017-06-13T06:45:02.522Z,64.8
2017-06-13T06:46:10.024Z,64.7
2017-06-13T06:47:17.509Z,62.5
2017-06-13T06:48:24.995Z,62.8
2017-06-13T06:49:32.478Z,65.1
2017-06-13T06:50:40.267Z,63.6
2017-06-13T06:51:47.755Z,64.6
2017-06-13T06:52:55.248Z,63.4
2017-06-13T06:54:02.737Z,62.9
2017-06-13T06:55:09.892Z,60.8
2017-06-13T06:56:17.692Z,60.4
2017-06-13T06:57:25.179Z,60.7
2017-06-13T06:58:32.336Z,59.5
2017-06-13T06:59:39.500Z,61.3
2017-06-13T07:00:46.989Z,61.6
2017-06-13T07:01:54.476Z,61.6
2017-06-13T07:03:01.971Z,58.7
2017-06-13T07:04:09.125Z,57.9
2017-06-13T07:05:16.614Z,59.8
2017-06-13T07:06:24.101Z,59.2
2017-06-13T07:07:31.891Z,58
2017-06-13T07:08:39.377Z,59.6
2017-06-13T07:09:46.863Z,59.8
2017-06-13T07:10:54.356Z,60.6
2017-06-13T07:12:01.848Z,58.6
2017-06-13T07:13:09.689Z,56.5
2017-06-13T07:14:17.182Z,59.2
2017-06-13T07:15:24.669Z,57.8
2017-06-13T07:16:32.162Z,56.6
2017-06-13T07:17:39.645Z,58.9
2017-06-13T07:18:47.435Z,58.1
2017-06-13T07:19:54.921Z,55.1
2017-06-13T07:21:02.088Z,55
2017-06-13T07:22:09.581Z,58.1
2017-06-13T07:23:17.071Z,55.7
2017-06-13T07:24:24.857Z,56.8
2017-06-13T07:25:32.347Z,57.4
2017-06-13T07:26:39.829Z,55.9
2017-06-13T07:27:46.992Z,57.8
2017-06-13T07:28:54.150Z,54.4
2017-06-13T07:30:01.990Z,56.5
2017-06-13T07:31:09.476Z,58.3
2017-06-13T07:32:16.959Z,56
2017-06-13T07:33:24.447Z,59.4
2017-06-13T07:34:31.936Z,52.7
2017-06-13T07:35:39.773Z,53.9
2017-06-13T07:36:47.258Z,49.9
2017-06-13T07:37:54.744Z,52.3
2017-06-13T07:39:02.230Z,53.2
2017-06-13T07:40:09.731Z,53
2017-06-13T07:41:17.576Z,57.6
2017-06-13T07:42:25.070Z,55.2
2017-06-13T07:43:32.564Z,52.2
2017-06-13T07:44:40.058Z,56
2017-06-13T07:45:47.224Z,54.3
2017-06-13T07:46:55.016Z,54.9
2017-06-13T07:48:02.503Z,52.9
2017-06-13T07:49:09.994Z,53.3
2017-06-13T07:50:17.149Z,51.9
2017-06-13T07:51:24.642Z,50.9
2017-06-13T07:52:32.435Z,52.4
2017-06-13T07:53:39.920Z,55.5
2017-06-13T07:54:47.416Z,55.5
2017-06-13T07:55:54.905Z,61.7
2017-06-13T07:57:02.401Z,56.8
2017-06-13T07:58:10.239Z,55.4
2017-06-13T07:59:17.729Z,52.3
2017-06-13T08:00:25.232Z,53.4
2017-06-13T08:01:32.722Z,53.2
2017-06-13T08:02:39.893Z,52.6
2017-06-13T08:03:47.381Z,53.2
2017-06-13T08:04:54.869Z,52.3
2017-06-13T08:06:02.675Z,55
2017-06-13T08:07:10.171Z,50
2017-06-13T08:08:17.663Z,50
2017-06-13T08:09:25.153Z,50.7
2017-06-13T08:10:32.651Z,50.2
2017-06-13T08:11:40.692Z,51.3
2017-06-13T08:12:48.185Z,52.5
2017-06-13T08:13:55.676Z,53.9
2017-06-13T08:15:03.170Z,52.9
2017-06-13T08:16:10.686Z,52
2017-06-13T08:17:18.471Z,51
2017-06-13T08:18:25.969Z,51.7
2017-06-13T08:19:33.465Z,52.1
2017-06-13T08:20:40.952Z,53
2017-06-13T08:21:48.444Z,54.1
2017-06-13T08:22:55.932Z,54.7
2017-06-13T08:24:03.423Z,56.5
2017-06-13T08:25:10.918Z,56.5
2017-06-13T08:26:18.411Z,57.8
2017-06-13T08:27:25.899Z,55.7
2017-06-13T08:28:33.696Z,52
2017-06-13T08:29:41.189Z,50.7
2017-06-13T08:30:48.670Z,52.5
2017-06-13T08:31:56.166Z,50.1
2017-06-13T08:33:03.664Z,50.9
2017-06-13T08:34:11.461Z,48.5
2017-06-13T08:35:18.968Z,50.7
2017-06-13T08:36:26.458Z,50.3
2017-06-13T08:37:33.953Z,52.5
2017-06-13T08:38:41.446Z,52.1
2017-06-13T08:39:49.287Z,47.6
2017-06-13T08:40:56.778Z,51.8
2017-06-13T08:42:04.266Z,52.7
2017-06-13T08:43:11.757Z,51.3
2017-06-13T08:44:19.255Z,50.1
2017-06-13T08:45:27.100Z,51.5
2017-06-13T08:46:34.591Z,51.8
2017-06-13T08:47:42.079Z,53.8
2017-06-13T08:48:49.576Z,50.8
2017-06-13T08:49:57.068Z,50
2017-06-13T08:51:04.908Z,50.3
2017-06-13T08:52:12.406Z,51
2017-06-13T08:53:19.894Z,52.4
2017-06-13T08:54:27.391Z,51.5
2017-06-13T08:55:34.877Z,54.9
2017-06-13T08:56:42.719Z,51.2
2017-06-13T08:57:50.216Z,50.8
2017-06-13T08:58:57.387Z,48.1
2017-06-13T09:00:04.879Z,49.6
2017-06-13T09:01:12.368Z,49.2
2017-06-13T09:02:20.214Z,46.9
2017-06-13T09:03:27.704Z,50.5
2017-06-13T09:04:35.199Z,52.5
2017-06-13T09:05:42.367Z,49.6
2017-06-13T09:06:49.854Z,46.9
2017-06-13T09:07:57.316Z,51.2
2017-06-13T09:09:04.474Z,49.6
2017-06-13T09:10:11.967Z,48.2
2017-06-13T09:11:19.421Z,48
2017-06-13T09:12:26.936Z,47
2017-06-13T09:13:34.408Z,49.5
2017-06-13T09:14:41.897Z,48.7
2017-06-13T09:15:49.384Z,49.1
2017-06-13T09:16:56.875Z,51.8
2017-06-13T09:18:03.704Z,45.7
2017-06-13T09:19:11.163Z,45.3
2017-06-13T09:20:18.655Z,48.1
2017-06-13T09:21:26.150Z,48.5
2017-06-13T09:22:33.640Z,46.9
2017-06-13T09:23:41.130Z,48.1
2017-06-13T09:24:48.295Z,49.5
2017-06-13T09:25:55.783Z,48.9
2017-06-13T09:27:03.269Z,48.3
2017-06-13T09:28:10.761Z,49.9
2017-06-13T09:29:17.919Z,48.6
2017-06-13T09:30:25.714Z,49.8
2017-06-13T09:31:33.210Z,48
2017-06-13T09:32:40.377Z,48.2
2017-06-13T09:33:47.861Z,48.4
2017-06-13T09:34:55.359Z,47.9
2017-06-13T09:36:02.817Z,48.2
2017-06-13T09:37:10.314Z,48.5
2017-06-13T09:38:17.479Z,49.2
2017-06-13T09:39:24.972Z,46.5
2017-06-13T09:40:32.137Z,48.3
2017-06-13T09:41:39.928Z,46.4
2017-06-13T09:42:47.423Z,47.9
2017-06-13T09:43:54.912Z,47
2017-06-13T09:45:02.399Z,49.5
2017-06-13T09:46:09.571Z,52
2017-06-13T09:47:17.364Z,46.5
2017-06-13T09:48:24.858Z,47.5
2017-06-13T09:49:32.353Z,47
2017-06-13T09:50:39.845Z,45.6
2017-06-13T09:51:47.006Z,46.8
2017-06-13T09:52:54.819Z,45.8
2017-06-13T09:54:01.991Z,46.9
2017-06-13T09:55:09.156Z,45.8
2017-06-13T09:56:16.648Z,46.7
2017-06-13T09:57:23.818Z,47.6
2017-06-13T09:58:31.609Z,46.5
2017-06-13T09:59:39.110Z,47.7
2017-06-13T10:00:46.268Z,48.6
2017-06-13T10:01:53.757Z,47.4
2017-06-13T10:03:00.918Z,48.4
2017-06-13T10:04:08.718Z,49.6
2017-06-13T10:05:15.879Z,50.4
2017-06-13T10:06:23.369Z,49.2
2017-06-13T10:07:30.856Z,48.7
2017-06-13T10:08:38.353Z,49.9
2017-06-13T10:09:45.516Z,51.6
2017-06-13T10:10:53.005Z,48.1
2017-06-13T10:12:00.496Z,50
2017-06-13T10:13:07.658Z,50.3
2017-06-13T10:14:14.821Z,48.2
2017-06-13T10:15:22.631Z,50.5
2017-06-13T10:16:30.127Z,50.9
2017-06-13T10:17:37.628Z,50.8
2017-06-13T10:18:45.114Z,50.2
2017-06-13T10:19:51.945Z,48.3
2017-06-13T10:20:59.736Z,49.2
2017-06-13T10:22:07.233Z,50.3
2017-06-13T10:23:14.417Z,52.2
2017-06-13T10:24:21.583Z,49.6
2017-06-13T10:25:29.078Z,52.5
2017-06-13T10:26:36.871Z,52.2
2017-06-13T10:27:44.370Z,50.3
2017-06-13T10:28:51.884Z,50.6
2017-06-13T10:29:59.386Z,52.2
2017-06-13T10:31:06.881Z,50.3
2017-06-13T10:32:14.051Z,47.3
2017-06-13T10:33:21.543Z,46.8
2017-06-13T10:34:28.699Z,46.7
2017-06-13T10:35:36.192Z,50.4
2017-06-13T10:36:43.363Z,46.8
2017-06-13T10:37:50.883Z,46.9
2017-06-13T10:38:58.374Z,49.1
2017-06-13T10:40:05.869Z,50.2
2017-06-13T10:41:13.035Z,49.7
2017-06-13T10:42:20.529Z,50.6
2017-06-13T10:43:28.389Z,48.4
2017-06-13T10:44:35.884Z,50.5
2017-06-13T10:45:43.047Z,49.6
2017-06-13T10:46:50.207Z,49.4
2017-06-13T10:47:57.378Z,47.1
2017-06-13T10:49:05.227Z,47.1
2017-06-13T10:50:12.726Z,46.8
2017-06-13T10:51:20.227Z,50.7
2017-06-13T10:52:27.722Z,47.7
2017-06-13T10:53:35.214Z,44.5
2017-06-13T10:54:42.399Z,47.3
2017-06-13T10:55:49.888Z,45
2017-06-13T10:56:57.050Z,46.9
2017-06-13T10:58:04.546Z,46.6
2017-06-13T10:59:12.349Z,46.9
2017-06-13T11:00:19.848Z,45.2
2017-06-13T11:01:27.024Z,47
2017-06-13T11:02:34.512Z,45.6
2017-06-13T11:03:42.003Z,44
2017-06-13T11:04:49.807Z,45.7
2017-06-13T11:05:57.298Z,45
2017-06-13T11:07:04.465Z,45.8
2017-06-13T11:08:11.958Z,46.8
2017-06-13T11:09:19.456Z,43.9
2017-06-13T11:10:27.254Z,44.1
2017-06-13T11:11:34.747Z,45.9
2017-06-13T11:12:42.244Z,46.7
2017-06-13T11:13:49.743Z,47.2
2017-06-13T11:14:57.238Z,46.7
2017-06-13T11:16:05.032Z,47
2017-06-13T11:17:12.528Z,46.3
2017-06-13T11:18:19.706Z,47.3
2017-06-13T11:19:27.199Z,46.9
2017-06-13T11:20:34.363Z,46.1
2017-06-13T11:21:42.208Z,46.4
2017-06-13T11:22:49.702Z,46.1
2017-06-13T11:23:57.211Z,45.2
2017-06-13T11:25:04.705Z,46.3
2017-06-13T11:26:12.194Z,44.1
2017-06-13T11:27:20.037Z,44.5
2017-06-13T11:28:27.536Z,44.2
2017-06-13T11:29:35.041Z,46.7
2017-06-13T11:30:42.536Z,44.6
2017-06-13T11:31:50.032Z,45.7
2017-06-13T11:32:57.875Z,45.3
2017-06-13T11:34:05.042Z,47.5
2017-06-13T11:35:12.536Z,45.6
2017-06-13T11:36:20.033Z,45
2017-06-13T11:37:27.527Z,45.9
2017-06-13T11:38:35.330Z,47.2
2017-06-13T11:39:42.492Z,45.4
2017-06-13T11:40:50.002Z,46.5
2017-06-13T11:41:57.501Z,44.7
2017-06-13T11:43:04.996Z,43.9
2017-06-13T11:44:12.837Z,46.7
2017-06-13T11:45:20.328Z,47
2017-06-13T11:46:27.824Z,48.1
2017-06-13T11:47:35.316Z,48.4
2017-06-13T11:48:42.817Z,47
2017-06-13T11:49:50.671Z,47.2
2017-06-13T11:50:58.163Z,46.2
2017-06-13T11:52:05.671Z,45.6
2017-06-13T11:53:13.187Z,47.1
2017-06-13T11:54:20.380Z,49.2
2017-06-13T11:55:28.223Z,45.5
2017-06-13T11:56:35.715Z,44.6
2017-06-13T11:57:43.208Z,45.4
2017-06-13T11:58:50.727Z,45.2
2017-06-13T11:59:58.223Z,46
2017-06-13T12:01:06.061Z,44.3
2017-06-13T12:02:13.217Z,47.7
2017-06-13T12:03:20.713Z,45.2
2017-06-13T12:04:28.202Z,46.1
2017-06-13T12:05:35.694Z,47.2
2017-06-13T12:06:43.488Z,46.8
2017-06-13T12:07:50.981Z,48.1
2017-06-13T12:08:58.140Z,48
2017-06-13T12:10:05.628Z,47.2
2017-06-13T12:11:13.120Z,46
2017-06-13T12:12:20.629Z,48.7
2017-06-13T12:13:28.127Z,48.1
2017-06-13T12:14:35.619Z,48.1
2017-06-13T12:15:42.782Z,48
2017-06-13T12:16:50.277Z,47.1
2017-06-13T12:17:57.783Z,46.4
2017-06-13T12:19:05.276Z,45.9
2017-06-13T12:20:12.768Z,47.6
2017-06-13T12:21:20.262Z,45.9
2017-06-13T12:22:27.755Z,43.5
2017-06-13T12:23:35.545Z,46.9
2017-06-13T12:24:43.040Z,43.6
2017-06-13T12:25:50.527Z,44.7
2017-06-13T12:26:58.035Z,44
2017-06-13T12:28:05.546Z,43.8
2017-06-13T12:29:13.388Z,43.3
2017-06-13T12:30:20.894Z,43.4
2017-06-13T12:31:28.390Z,43.8
2017-06-13T12:32:35.878Z,42
2017-06-13T12:33:43.365Z,44.2
2017-06-13T12:34:51.217Z,42.5
2017-06-13T12:35:58.707Z,43.4
2017-06-13T12:37:06.197Z,43.1
2017-06-13T12:38:13.686Z,41
2017-06-13T12:39:21.179Z,42.5
2017-06-13T12:40:29.022Z,44.9
2017-06-13T12:41:36.511Z,43.4
2017-06-13T12:42:43.666Z,47.3
2017-06-13T12:43:51.156Z,48.4
2017-06-13T12:44:58.646Z,47
2017-06-13T12:46:06.439Z,46.6
2017-06-13T12:47:13.934Z,45.3
2017-06-13T12:48:21.429Z,46.2
2017-06-13T12:49:28.923Z,47.2
2017-06-13T12:50:36.434Z,46.2
2017-06-13T12:51:44.231Z,43.8
2017-06-13T12:52:51.719Z,45.9
2017-06-13T12:53:59.212Z,46.2
2017-06-13T12:55:06.703Z,45.7
2017-06-13T12:56:14.190Z,46.1
2017-06-13T12:57:22.031Z,45.5
2017-06-13T12:58:29.192Z,45.1
2017-06-13T12:59:36.691Z,46.7
2017-06-13T13:00:44.187Z,46.6
2017-06-13T13:01:51.678Z,48
2017-06-13T13:02:59.491Z,46.2
2017-06-13T13:04:06.659Z,43.7
2017-06-13T13:05:14.149Z,46.3
2017-06-13T13:06:21.308Z,44.6
2017-06-13T13:07:28.800Z,45.2
2017-06-13T13:08:36.641Z,45.8
2017-06-13T13:09:44.129Z,45.1
2017-06-13T13:10:51.622Z,43.2
2017-06-13T13:11:59.122Z,46.8
2017-06-13T13:13:06.614Z,50
2017-06-13T13:14:14.458Z,46.5
2017-06-13T13:15:21.949Z,46.5
2017-06-13T13:16:29.444Z,46.4
2017-06-13T13:17:36.938Z,46.6
2017-06-13T13:18:44.430Z,47.6
2017-06-13T13:19:52.226Z,46.9
2017-06-13T13:20:59.951Z,44.6
2017-06-13T13:22:07.431Z,47.1
2017-06-13T13:23:14.922Z,47.3
2017-06-13T13:24:22.414Z,46.9
2017-06-13T13:25:30.259Z,47.6
2017-06-13T13:26:37.417Z,47.2
2017-06-13T13:27:44.904Z,45.2
2017-06-13T13:28:52.399Z,45.7
2017-06-13T13:29:59.899Z,45.3
2017-06-13T13:31:07.737Z,45
2017-06-13T13:32:15.229Z,44.8
2017-06-13T13:33:22.738Z,47.2
2017-06-13T13:34:30.230Z,44.7
2017-06-13T13:35:37.721Z,46.4
2017-06-13T13:36:45.565Z,46
2017-06-13T13:37:53.052Z,46.6
2017-06-13T13:39:00.222Z,47.2
2017-06-13T13:40:07.721Z,47
2017-06-13T13:41:15.209Z,47.3
2017-06-13T13:42:22.701Z,46.9
2017-06-13T13:43:30.204Z,46
2017-06-13T13:44:37.997Z,45.8
2017-06-13T13:45:45.503Z,46.4
2017-06-13T13:46:52.342Z,43.8
2017-06-13T13:47:59.494Z,45.4
2017-06-13T13:49:06.986Z,43
2017-06-13T13:50:14.448Z,45.4
2017-06-13T13:51:21.600Z,46.9
2017-06-13T13:52:28.767Z,46.7
2017-06-13T13:53:35.605Z,45.1
2017-06-13T13:54:43.091Z,41.1
2017-06-13T13:55:50.887Z,42.2
2017-06-13T13:56:58.381Z,45
2017-06-13T13:58:05.873Z,44.4
2017-06-13T13:59:13.363Z,43.2
2017-06-13T14:00:20.850Z,44.4
2017-06-13T14:01:28.664Z,43.7
2017-06-13T14:02:35.827Z,45.6
2017-06-13T14:03:42.994Z,46.3
2017-06-13T14:04:50.485Z,46.1
2017-06-13T14:05:57.976Z,43.8
2017-06-13T14:07:05.767Z,44.5
2017-06-13T14:08:13.259Z,45.2
2017-06-13T14:09:20.749Z,43.8
2017-06-13T14:10:28.244Z,41.7
2017-06-13T14:11:35.778Z,42.9
2017-06-13T14:12:43.565Z,43.1
2017-06-13T14:13:51.065Z,43.5
2017-06-13T14:14:58.572Z,46.4
2017-06-13T14:16:06.067Z,45.6
2017-06-13T14:17:13.232Z,45.4
2017-06-13T14:18:21.030Z,47.8
2017-06-13T14:19:28.526Z,47.1
2017-06-13T14:20:36.017Z,46.1
2017-06-13T14:21:43.509Z,46.8
2017-06-13T14:22:50.666Z,45
2017-06-13T14:23:58.162Z,44.5
2017-06-13T14:25:05.656Z,46.9
2017-06-13T14:26:13.145Z,45
2017-06-13T14:27:20.637Z,46.5
2017-06-13T14:28:28.144Z,47.1
2017-06-13T14:29:35.934Z,46.8
2017-06-13T14:30:43.096Z,46.4
2017-06-13T14:31:50.590Z,45.2
2017-06-13T14:32:58.084Z,46.2
2017-06-13T14:34:05.246Z,45.8
2017-06-13T14:35:13.036Z,46.9
2017-06-13T14:36:20.527Z,46.1
2017-06-13T14:37:28.013Z,43.8
2017-06-13T14:38:35.508Z,45.4
2017-06-13T14:39:42.996Z,45.2
2017-06-13T14:40:50.787Z,44.4
2017-06-13T14:41:58.279Z,45.5
2017-06-13T14:43:05.769Z,47.3
2017-06-13T14:44:13.258Z,46.3
2017-06-13T14:45:20.752Z,47.1
2017-06-13T14:46:28.211Z,48.3
2017-06-13T14:47:35.729Z,48.6
2017-06-13T14:48:43.225Z,46
2017-06-13T14:49:50.713Z,45.1
2017-06-13T14:50:58.209Z,43.1
2017-06-13T14:52:06.011Z,45.6
2017-06-13T14:53:13.508Z,44.5
2017-06-13T14:54:21.002Z,46.2
2017-06-13T14:55:28.500Z,45.2
2017-06-13T14:56:35.997Z,44.3
2017-06-13T14:57:43.790Z,44.9
2017-06-13T14:58:51.282Z,46
2017-06-13T14:59:58.777Z,45.2
2017-06-13T15:01:05.952Z,46.1
2017-06-13T15:02:13.455Z,46.5
2017-06-13T15:03:20.954Z,47
2017-06-13T15:04:28.447Z,47.6